createdAt,value
2019-04-16T00:02:10.483Z,99945.73
2019-04-16T00:07:30.741Z,99946.09
2019-04-16T00:12:56.764Z,99943.55
2019-04-16T00:18:18.518Z,99937.00
2019-04-16T00:23:37.300Z,99929.31
2019-04-16T00:28:55.855Z,99925.03
2019-04-16T00:34:14.596Z,99921.76
2019-04-16T00:39:33.098Z,99916.16
2019-04-16T00:44:51.567Z,99912.25
2019-04-16T00:50:10.294Z,99902.40
2019-04-16T00:55:28.915Z,99899.77
2019-04-16T01:00:47.457Z,99893.66
2019-04-16T01:06:07.943Z,99885.45
2019-04-16T01:11:26.420Z,99892.69
2019-04-16T01:16:45.040Z,99884.48
2019-04-16T01:22:03.662Z,99878.73
2019-04-16T01:27:28.578Z,99871.33
2019-04-16T01:32:45.784Z,99867.69
2019-04-16T01:38:21.308Z,99865.52
2019-04-16T01:43:40.281Z,99857.34
2019-04-16T01:48:58.756Z,99852.39
2019-04-16T01:54:17.295Z,99846.81
2019-04-16T01:59:36.460Z,99842.98
2019-04-16T02:04:55.021Z,99834.97
2019-04-16T02:10:13.801Z,99832.28
2019-04-16T02:15:32.539Z,99833.00
2019-04-16T02:20:51.069Z,99828.56
2019-04-16T02:26:09.609Z,99822.30
2019-04-16T02:31:28.158Z,99821.44
2019-04-16T02:36:46.716Z,99823.31
2019-04-16T02:42:05.271Z,99822.56
2019-04-16T02:47:23.865Z,99818.81
2019-04-16T02:52:53.112Z,99816.24
2019-04-16T02:58:16.026Z,99817.66
2019-04-16T03:03:39.280Z,99811.97
2019-04-16T03:08:58.018Z,99804.73
2019-04-16T03:14:16.587Z,99803.37
2019-04-16T03:19:51.001Z,99800.80
2019-04-16T03:25:12.637Z,99791.87
2019-04-16T03:30:28.222Z,99799.45
2019-04-16T03:35:46.860Z,99788.66
2019-04-16T03:41:05.505Z,99783.94
2019-04-16T03:46:24.044Z,99788.39
2019-04-16T03:51:42.594Z,99780.80
2019-04-16T03:57:02.256Z,99771.61
2019-04-16T04:02:22.932Z,99771.13
2019-04-16T04:07:44.201Z,99761.62
2019-04-16T04:13:04.774Z,99767.38
2019-04-16T04:18:22.174Z,99762.22
2019-04-16T04:23:40.639Z,99759.83
2019-04-16T04:28:59.116Z,99768.16
2019-04-16T04:34:17.849Z,99764.73
2019-04-16T04:39:36.661Z,99765.73
2019-04-16T04:44:55.286Z,99763.92
2019-04-16T04:50:13.896Z,99772.20
2019-04-16T04:55:33.056Z,99778.99
2019-04-16T05:00:51.700Z,99772.06
2019-04-16T05:06:14.671Z,99771.03
2019-04-16T05:11:33.287Z,99780.55
2019-04-16T05:16:51.836Z,99787.34
2019-04-16T05:22:10.310Z,99796.74
2019-04-16T05:27:29.494Z,99793.31
2019-04-16T05:32:48.291Z,99807.83
2019-04-16T05:38:07.729Z,99819.47
2019-04-16T05:43:29.982Z,99813.49
2019-04-16T05:48:46.878Z,99831.83
2019-04-16T05:54:12.397Z,99832.06
2019-04-16T05:59:33.580Z,99832.59
2019-04-16T06:04:50.429Z,99831.30
2019-04-16T06:10:10.271Z,99838.05
2019-04-16T06:15:46.731Z,99835.70
2019-04-16T06:21:25.819Z,99835.69
2019-04-16T06:26:47.407Z,99841.68
2019-04-16T06:32:22.167Z,99845.64
2019-04-16T06:37:45.603Z,99850.30
2019-04-16T06:43:26.481Z,99855.66
2019-04-16T06:48:50.724Z,99853.32
2019-04-16T06:54:31.726Z,99847.45
2019-04-16T06:59:59.473Z,99840.85
2019-04-16T07:05:36.018Z,99837.44
2019-04-16T07:10:56.138Z,99830.99
2019-04-16T07:16:14.683Z,99825.85
2019-04-16T07:21:33.305Z,99819.23
2019-04-16T07:26:52.229Z,99813.17
2019-04-16T07:32:13.872Z,99811.91
2019-04-16T07:37:46.489Z,99813.42
2019-04-16T07:43:06.692Z,99812.34
2019-04-16T07:48:32.971Z,99803.37
2019-04-16T07:53:53.232Z,99798.34
2019-04-16T07:59:11.788Z,99793.16
2019-04-16T08:04:35.310Z,99790.97
2019-04-16T08:09:50.756Z,99789.55
2019-04-16T08:15:14.265Z,99791.53
2019-04-16T08:20:30.107Z,99795.63
2019-04-16T08:25:53.293Z,99799.53
2019-04-16T08:31:12.650Z,99805.36
2019-04-16T08:36:30.988Z,99798.80
2019-04-16T08:41:52.366Z,99796.45
2019-04-16T08:47:12.122Z,99787.50
2019-04-16T08:52:30.784Z,99789.20
2019-04-16T08:57:49.461Z,99777.81
2019-04-16T09:03:07.969Z,99778.33
2019-04-16T09:08:44.698Z,99774.35
2019-04-16T09:14:04.667Z,99773.39
2019-04-16T09:19:23.973Z,99777.33
2019-04-16T09:24:44.173Z,99773.96
2019-04-16T09:30:04.655Z,99763.79
2019-04-16T09:35:24.775Z,99760.11
2019-04-16T09:41:00.231Z,99758.42
2019-04-16T09:46:25.028Z,99762.39
2019-04-16T09:51:39.714Z,99756.02
2019-04-16T09:56:59.741Z,99755.40
2019-04-16T10:02:20.628Z,99737.99
2019-04-16T10:07:40.282Z,99748.47
2019-04-16T10:12:59.770Z,99732.56
2019-04-16T10:18:18.348Z,99723.45
2019-04-16T10:23:38.613Z,99732.06
2019-04-16T10:28:58.908Z,99717.84
2019-04-16T10:34:17.635Z,99721.26
2019-04-16T10:39:46.819Z,99731.06
2019-04-16T10:45:24.432Z,99720.88
2019-04-16T10:50:44.636Z,99722.23
2019-04-16T10:56:21.260Z,99719.56
2019-04-16T11:01:44.652Z,99722.11
2019-04-16T11:07:04.921Z,99716.88
2019-04-16T11:12:23.582Z,99694.47
2019-04-16T11:17:42.308Z,99694.47
2019-04-16T11:23:00.919Z,99698.23
2019-04-16T11:28:19.559Z,99713.45
2019-04-16T11:33:38.364Z,99694.35
2019-04-16T11:38:56.880Z,99693.47
2019-04-16T11:44:17.009Z,99683.93
2019-04-16T11:49:35.813Z,99686.95
2019-04-16T11:54:54.473Z,99690.17
2019-04-16T12:00:15.257Z,99692.22
2019-04-16T12:05:37.915Z,99685.84
2019-04-16T12:11:01.117Z,99688.73
2019-04-16T12:16:25.462Z,99700.73
2019-04-16T12:22:01.070Z,99689.37
2019-04-16T12:27:36.673Z,99697.19
2019-04-16T12:32:59.791Z,99692.30
2019-04-16T12:38:20.052Z,99695.84
2019-04-16T12:43:43.126Z,99696.13
2019-04-16T12:49:18.287Z,99704.98
2019-04-16T12:54:58.343Z,99692.59
2019-04-16T13:00:17.069Z,99701.77
2019-04-16T13:05:46.443Z,99692.03
2019-04-16T13:11:22.628Z,99694.22
2019-04-16T13:16:58.871Z,99693.16
2019-04-16T13:22:21.729Z,99694.22
2019-04-16T13:27:41.665Z,99691.52
2019-04-16T13:33:00.148Z,99692.88
2019-04-16T13:38:20.364Z,99696.91
2019-04-16T13:43:43.245Z,99689.37
2019-04-16T13:49:03.497Z,99684.26
2019-04-16T13:54:34.111Z,99683.98
2019-04-16T13:59:56.767Z,99683.18
2019-04-16T14:05:15.625Z,99688.29
2019-04-16T14:10:34.435Z,99682.09
2019-04-16T14:15:52.924Z,99677.49
2019-04-16T14:21:11.461Z,99656.47
2019-04-16T14:26:30.080Z,99675.08
2019-04-16T14:31:49.104Z,99666.20
2019-04-16T14:37:08.147Z,99655.16
2019-04-16T14:42:26.788Z,99669.66
2019-04-16T14:47:45.402Z,99668.31
2019-04-16T14:53:04.043Z,99671.49
2019-04-16T14:58:27.213Z,99660.78
2019-04-16T15:03:50.330Z,99668.08
2019-04-16T15:09:22.612Z,99664.56
2019-04-16T15:14:42.860Z,99665.11
2019-04-16T15:20:19.021Z,99673.46
2019-04-16T15:25:55.999Z,99673.16
2019-04-16T15:31:25.470Z,99674.95
2019-04-16T15:36:55.003Z,99673.32
2019-04-16T15:42:25.373Z,99666.34
2019-04-16T15:48:03.711Z,99671.00
2019-04-16T15:53:29.692Z,99678.83
2019-04-16T15:58:49.807Z,99675.77
2019-04-16T16:04:10.044Z,99685.46
2019-04-16T16:09:41.097Z,99686.55
2019-04-16T16:14:59.381Z,99677.93
2019-04-16T16:20:18.188Z,99685.58
2019-04-16T16:25:41.118Z,99684.62
2019-04-16T16:30:57.668Z,99677.77
2019-04-16T16:36:16.208Z,99692.11
2019-04-16T16:41:34.765Z,99691.81
2019-04-16T16:46:57.417Z,99693.67
2019-04-16T16:52:33.202Z,99693.58
2019-04-16T16:57:56.193Z,99697.11
2019-04-16T17:03:25.178Z,99699.36
2019-04-16T17:08:43.730Z,99709.97
2019-04-16T17:14:03.146Z,99713.30
2019-04-16T17:19:22.139Z,99725.34
2019-04-16T17:24:40.767Z,99729.09
2019-04-16T17:29:59.320Z,99756.30
2019-04-16T17:35:18.027Z,99759.41
2019-04-16T17:40:43.968Z,99764.77
2019-04-16T17:46:12.934Z,99771.62
2019-04-16T17:51:44.815Z,99777.73
2019-04-16T17:57:05.200Z,99784.65
2019-04-16T18:02:34.372Z,99797.34
2019-04-16T18:08:10.695Z,99812.29
2019-04-16T18:13:32.176Z,99822.27
2019-04-16T18:18:52.805Z,99832.64
2019-04-16T18:24:22.017Z,99839.52
2019-04-16T18:29:42.196Z,99847.27
2019-04-16T18:35:05.262Z,99840.47
2019-04-16T18:40:31.474Z,99846.14
2019-04-16T18:46:08.475Z,99850.28
2019-04-16T18:51:27.122Z,99860.98
2019-04-16T18:56:45.732Z,99854.66
2019-04-16T19:02:09.799Z,99865.35
2019-04-16T19:07:28.432Z,99875.91
2019-04-16T19:12:47.087Z,99889.17
2019-04-16T19:18:18.537Z,99893.96
2019-04-16T19:23:25.915Z,99896.73
2019-04-16T19:28:45.659Z,99907.01
2019-04-16T19:34:09.299Z,99919.94
2019-04-16T19:39:24.633Z,99918.33
2019-04-16T19:44:43.245Z,99919.81
2019-04-16T19:50:01.800Z,99927.16
2019-04-16T19:55:20.502Z,99930.03
2019-04-16T20:00:39.283Z,99936.17
2019-04-16T20:05:57.909Z,99937.30
2019-04-16T20:11:20.403Z,99947.17
2019-04-16T20:16:37.024Z,99946.55
2019-04-16T20:21:55.569Z,99947.98
2019-04-16T20:27:14.118Z,99947.33
2019-04-16T20:32:34.384Z,99943.55
2019-04-16T20:37:53.982Z,99951.58
2019-04-16T20:43:13.276Z,99949.56
2019-04-16T20:48:31.745Z,99951.91
2019-04-16T20:53:50.300Z,99954.59
2019-04-16T20:59:08.865Z,99946.61
2019-04-16T21:04:27.522Z,99954.36
2019-04-16T21:09:46.069Z,99949.55
2019-04-16T21:15:05.782Z,99959.23
2019-04-16T21:20:24.395Z,99966.59
2019-04-16T21:25:45.901Z,99980.36
2019-04-16T21:31:04.949Z,99973.38
2019-04-16T21:36:43.558Z,99976.80
2019-04-16T21:42:03.299Z,99981.41
2019-04-16T21:47:23.595Z,99982.49
2019-04-16T21:52:42.483Z,99990.79
2019-04-16T21:58:01.098Z,99992.66
2019-04-16T22:03:21.403Z,100000.14
2019-04-16T22:08:39.942Z,100001.75
2019-04-16T22:13:58.413Z,100013.45
2019-04-16T22:19:16.957Z,100012.78
2019-04-16T22:24:35.566Z,100016.99
2019-04-16T22:29:54.185Z,100016.31
2019-04-16T22:35:12.792Z,100023.04
2019-04-16T22:40:39.101Z,100023.04
2019-04-16T22:46:02.432Z,100033.04
2019-04-16T22:51:20.901Z,100044.28
2019-04-16T22:56:44.278Z,100034.24
2019-04-16T23:02:04.804Z,100039.85
2019-04-16T23:07:23.370Z,100040.09
2019-04-16T23:12:41.927Z,100024.71
2019-04-16T23:18:00.460Z,100038.59
2019-04-16T23:23:19.361Z,100035.30
2019-04-16T23:28:39.769Z,100033.36
2019-04-16T23:33:58.211Z,100035.57
2019-04-16T23:39:16.825Z,100037.89
2019-04-16T23:44:40.186Z,100027.35
2019-04-16T23:50:00.316Z,100022.64
2019-04-16T23:55:23.260Z,100023.92
